ADDS METAR Data INFO
IDs: Format: Raw Decoded Include TAF

Data at: 2302 UTC 15 Jul 2018

KAEL 152255Z AUTO 31004KT 10SM CLR 28/19 A2997 RMK AO2
KAEL 152235Z AUTO 31003KT 10SM SCT035 28/19 A2998 RMK AO2
KAEL 152215Z AUTO 31004KT 10SM SCT035 28/19 A2998 RMK AO2
KAEL 152155Z AUTO 31003KT 10SM CLR 28/19 A2998 RMK AO2 P0001
KAEL 152135Z AUTO 34004KT 10SM CLR 28/19 A2998 RMK AO2
KAEL 152115Z AUTO 32004KT 10SM CLR 28/19 A2998 RMK AO2
KAEL 152055Z AUTO 32005KT 10SM CLR 28/19 A2998 RMK AO2
KAEL 152035Z AUTO 29003KT 10SM CLR 28/19 A2998 RMK AO2
KAEL 152015Z AUTO 29006KT 10SM SCT041 28/19 A2999 RMK AO2
KAEL 151955Z AUTO 31003KT 10SM SCT035 SCT060 28/19 A2999 RMK AO2 P0001
KAEL 151935Z AUTO 02003KT 10SM SCT033 28/19 A2998 RMK AO2 P0001
KAEL 151915Z AUTO 00000KT 10SM SCT031 SCT080 28/19 A2999 RMK AO2 P0001
KAEL 151855Z AUTO 35004KT 10SM SCT029 28/18 A3000 RMK AO2
KAEL 151835Z AUTO 00000KT 10SM SCT029 27/20 A3000 RMK AO2
KAEL 151815Z AUTO 01003KT 10SM SCT025 SCT034 28/19 A3001 RMK AO2
KAEL 151755Z AUTO 30004KT 10SM SCT034 SCT075 27/20 A3001 RMK AO2 P0001
KAEL 151735Z AUTO 30005KT 10SM CLR 27/19 A3002 RMK AO2 P0001
KAEL 151715Z AUTO 00000KT 10SM SCT023 SCT080 27/19 A3003 RMK AO2 P0001
KAEL 151655Z AUTO 35003KT 10SM SCT021 SCT025 SCT080 27/20 A3003 RMK AO2
KAEL 151635Z AUTO 00000KT 10SM SCT019 SCT027 BKN036 27/19 A3003 RMK AO2
KAEL 151615Z AUTO 00000KT 10SM SCT019 BKN080 26/20 A3003 RMK AO2
KAEL 151555Z AUTO 00000KT 10SM SCT021 BKN080 26/19 A3003 RMK AO2
KAEL 151535Z AUTO 00000KT 10SM SCT017 BKN080 26/20 A3003 RMK AO2
KAEL 151515Z AUTO 00000KT 10SM BKN015 BKN080 26/21 A3002 RMK AO2
KAEL 151455Z AUTO 00000KT 10SM BKN080 23/22 A3001 RMK AO2 P0001
KAEL 151435Z AUTO 00000KT 10SM BKN070 23/22 A3002 RMK AO2 P0001
KAEL 151415Z AUTO 00000KT 7SM OVC070 23/21 A3001 RMK AO2
KAEL 151355Z AUTO 00000KT 4SM BR BKN001 OVC070 22/21 A3001 RMK AO2
KAEL 151335Z AUTO 00000KT 1/4SM FG OVC001 22/21 A3001 RMK AO2
KAEL 151315Z AUTO 00000KT M1/4SM FG OVC001 22/21 A3002 RMK AO2
KAEL 151255Z AUTO 00000KT M1/4SM FG OVC001 21/20 A3002 RMK AO2
KAEL 151235Z AUTO 00000KT M1/4SM FG OVC001 21/19 A3001 RMK AO2 LTG DSNT W
KAEL 151215Z AUTO 00000KT M1/4SM FG OVC001 21/19 A3002 RMK AO2
KAEL 151155Z AUTO 00000KT M1/4SM FG OVC001 19/18 A3001 RMK AO2
KAEL 151135Z AUTO 00000KT M1/4SM FG OVC001 19/18 A3002 RMK AO2
KAEL 151115Z AUTO 00000KT 1 1/2SM BR BKN001 19/18 A3001 RMK AO2
KAEL 151055Z AUTO 00000KT 1/4SM FG OVC001 19/18 A3001 RMK AO2 P0001
KAEL 151035Z AUTO 00000KT 1/4SM FG OVC001 19/18 A3001 RMK AO2 P0001
KAEL 151015Z AUTO 00000KT M1/4SM FG OVC001 19/18 A3001 RMK AO2 P0001
KAEL 150955Z AUTO 00000KT M1/4SM FG OVC001 19/18 A3001 RMK AO2
KAEL 150935Z AUTO 00000KT 1/4SM FG OVC001 19/18 RMK AO2
KAEL 150915Z AUTO 00000KT 3/4SM BR BKN001 BKN006 19/18 A3000 RMK AO2 VIS 1/2V1 3/4
KAEL 150855Z AUTO 00000KT 1 1/2SM BR BKN001 BKN006 19/18 A3000 RMK AO2 VIS 1/2V5
KAEL 150835Z AUTO 00000KT 4SM BR CLR 19/18 A3001 RMK AO2
KAEL 150815Z AUTO 00000KT 2 1/2SM BR CLR 19/18 A3001 RMK AO2
KAEL 150755Z AUTO 00000KT 4SM BR CLR 20/19 A3001 RMK AO2
KAEL 150735Z AUTO 00000KT 4SM BR SCT026 21/19 A3001 RMK AO2
KAEL 150715Z AUTO 00000KT 3SM BR CLR 20/19 A3002 RMK AO2
KAEL 150655Z AUTO 00000KT 4SM BR CLR 21/19 A3002 RMK AO2
KAEL 150635Z AUTO 00000KT 3SM BR CLR 20/19 A3002 RMK AO2
KAEL 150615Z AUTO 00000KT 5SM BR CLR 21/19 A3002 RMK AO2
KAEL 150555Z AUTO 00000KT 5SM BR CLR 21/19 A3002 RMK AO2 P0001
KAEL 150535Z AUTO 00000KT 7SM SCT022 21/19 A3003 RMK AO2 P0001
KAEL 150515Z AUTO 00000KT 5SM BR SCT020 21/19 A3003 RMK AO2
KAEL 150455Z AUTO 00000KT 7SM CLR 21/19 A3003 RMK AO2
KAEL 150435Z AUTO 00000KT 7SM CLR 21/20 A3001 RMK AO2
KAEL 150415Z AUTO 00000KT 7SM CLR 21/19 A3002 RMK AO2
KAEL 150355Z AUTO 00000KT 10SM CLR 22/20 A3002 RMK AO2
KAEL 150335Z AUTO 00000KT 10SM CLR 22/20 A3002 RMK AO2
KAEL 150315Z AUTO 00000KT 10SM SCT070 22/21 A3002 RMK AO2
KAEL 150255Z AUTO 00000KT 10SM CLR 22/20 A3002 RMK AO2
KAEL 150235Z AUTO 13003KT 10SM CLR 23/20 A3002 RMK AO2
KAEL 150215Z AUTO 00000KT 10SM CLR 24/19 A3001 RMK AO2
KAEL 150155Z AUTO 13003KT 10SM CLR 24/19 A3001 RMK AO2 P0001
KAEL 150135Z AUTO 00000KT 10SM CLR 25/19 A3001 RMK AO2
KAEL 150115Z AUTO 13003KT 10SM CLR 26/19 A3000 RMK AO2
KAEL 150055Z AUTO 00000KT 10SM CLR 26/19 A3000 RMK AO2
KAEL 150035Z AUTO 13004KT 10SM CLR 26/19 A3000 RMK AO2
KAEL 150015Z AUTO 12003KT 10SM SCT028 27/19 A2999 RMK AO2
KAEL 142355Z AUTO 00000KT 10SM SCT028 SCT033 27/19 A3000 RMK AO2 P0001
KAEL 142335Z AUTO 19003KT 10SM CLR 27/19 A3000 RMK AO2 P0001
KAEL 142315Z AUTO 14004KT 10SM SCT027 26/19 A3001 RMK AO2 P0001
KAEL 142255Z AUTO 10006KT 10SM BKN027 BKN038 BKN065 26/18 A3000 RMK AO2
KAEL 142235Z AUTO 14003KT 10SM SCT024 SCT037 BKN050 27/19 A3000 RMK AO2
KAEL 142215Z AUTO 19004KT 10SM SCT024 BKN038 BKN046 27/19 A3001 RMK AO2
KAEL 142155Z AUTO 16006KT 10SM SCT024 SCT033 SCT080 27/19 A3001 RMK AO2 P0001
KAEL 142135Z AUTO 09006KT 10SM SCT080 27/19 A3001 RMK AO2 P0001
KAEL 142115Z AUTO 11007KT 10SM SCT030 SCT044 BKN080 26/19 A3002 RMK AO2 P0001
KAEL 142055Z AUTO 10005KT 10SM SCT028 BKN070 27/18 A3002 RMK AO2
KAEL 142035Z AUTO 12005KT 10SM SCT047 BKN065 26/18 A3003 RMK AO2
KAEL 142015Z AUTO 12007KT 10SM SCT047 BKN065 26/19 A3004 RMK AO2
KAEL 141955Z AUTO 11007KT 10SM SCT026 SCT032 BKN065 26/19 A3004 RMK AO2
KAEL 141935Z AUTO 09007KT 10SM SCT026 SCT032 BKN060 27/19 A3004 RMK AO2
KAEL 141915Z AUTO 11007KT 080V140 10SM SCT024 SCT032 BKN060 27/19 A3004 RMK AO2
KAEL 141855Z AUTO 10009KT 10SM SCT024 BKN031 BKN041 26/19 A3004 RMK AO2 P0001
KAEL 141835Z AUTO 10009KT 10SM SCT024 SCT033 26/19 A3005 RMK AO2
KAEL 141815Z AUTO 06007KT 10SM SCT024 SCT030 BKN060 27/19 A3005 RMK AO2
KAEL 141755Z AUTO 05007KT 10SM BKN024 BKN031 BKN060 26/19 A3005 RMK AO2
KAEL 141735Z AUTO 04008KT 10SM BKN022 BKN041 BKN050 26/19 A3006 RMK AO2
KAEL 141715Z AUTO 04007KT 10SM SCT020 SCT028 BKN043 25/19 A3006 RMK AO2
KAEL 141655Z AUTO 04007KT 10SM SCT021 SCT029 BKN036 26/19 A3006 RMK AO2 P0001
KAEL 141635Z AUTO 05006KT 10SM SCT021 OVC034 25/18 A3007 RMK AO2 P0001
KAEL 141615Z AUTO 07008KT 10SM SCT019 BKN025 OVC034 24/19 A3006 RMK AO2
KAEL 141555Z AUTO 06007KT 10SM BKN019 BKN025 24/18 A3006 RMK AO2
KAEL 141535Z AUTO 06006KT 10SM SCT015 BKN023 24/19 A3006 RMK AO2
KAEL 141515Z AUTO 09004KT 10SM SCT015 24/19 A3007 RMK AO2
KAEL 141455Z AUTO 05007KT 10SM BKN011 23/19 A3007 RMK AO2 P0001
KAEL 141435Z AUTO 07005KT 10SM BKN007 OVC014 22/19 A3007 RMK AO2 P0001
KAEL 141415Z AUTO 07006KT 7SM OVC005 22/19 A3008 RMK AO2
KAEL 141355Z AUTO 07005KT 4SM BR OVC005 21/19 A3008 RMK AO2
KAEL 141335Z AUTO 06006KT 1 1/2SM BR OVC005 21/19 A3007 RMK AO2
KAEL 141315Z AUTO 06007KT 4SM BR OVC005 21/19 A3007 RMK AO2
KAEL 141255Z AUTO 04003KT 4SM BR OVC003 21/19 A3007 RMK AO2
KAEL 141235Z AUTO 02004KT 2 1/2SM BR BKN003 OVC012 21/19 A3006 RMK AO2
KAEL 141215Z AUTO 01004KT 2SM BR OVC003 20/19 A3007 RMK AO2
KAEL 141155Z AUTO 05003KT 1SM BR OVC003 20/19 A3007 RMK AO2 P0001
KAEL 141135Z AUTO 07003KT 1 1/2SM BR OVC003 20/19 A3006 RMK AO2 P0001
KAEL 141115Z AUTO 06004KT 1 3/4SM BR OVC003 20/19 A3006 RMK AO2